Howes Cave, New York
Current Conditions -  °F | °C
As of 9:35 AM on Monday 26 Jan 2015 (Local Time) from KNY0 Reporting Station
Overcast Overcast  
Wind Chill: -5°   Ceiling: 6000
Heat Index:   Visibility: 10mi
Dew Point: -4°   Wind: 6mph
Humidity: 63%   Direction: 60°ENE
Pressure: 30.05"   Gusts: NA
Location:  42.69°N, 74.38°W
Report Text: KNY0 261435Z AUTO 06005KT 10SM OVC060 M14/M20 A3005 RMK AO2 T11451201
Loading
Personal Weather Stations






























Interactive Weather Map New forecast layout! Learn more

10-Day Weather Forecast

Advertisements
Track Severe Weather on mobile